createdAt,value
2023-11-18T00:00:56.482Z,5.86
2023-11-18T00:03:23.127Z,5.81
2023-11-18T00:05:49.674Z,5.79
2023-11-18T00:08:16.164Z,5.78
2023-11-18T00:10:42.596Z,5.80
2023-11-18T00:13:09.987Z,5.76
2023-11-18T00:15:37.028Z,5.69
2023-11-18T00:18:03.702Z,5.66
2023-11-18T00:20:32.024Z,5.71
2023-11-18T00:22:58.917Z,5.80
2023-11-18T00:25:25.502Z,5.77
2023-11-18T00:27:51.968Z,5.80
2023-11-18T00:30:18.642Z,5.82
2023-11-18T00:32:45.432Z,5.81
2023-11-18T00:35:12.180Z,5.76
2023-11-18T00:37:38.619Z,5.75
2023-11-18T00:40:05.756Z,5.77
2023-11-18T00:42:32.247Z,5.76
2023-11-18T00:44:58.774Z,5.76
2023-11-18T00:47:25.319Z,5.77
2023-11-18T00:49:53.711Z,5.77
2023-11-18T00:52:20.457Z,5.77
2023-11-18T00:54:46.948Z,5.78
2023-11-18T00:57:13.485Z,5.76
2023-11-18T00:59:43.922Z,5.83
2023-11-18T01:02:10.475Z,5.87
2023-11-18T01:04:36.976Z,5.86
2023-11-18T01:07:03.876Z,5.82
2023-11-18T01:09:30.345Z,5.76
2023-11-18T01:12:07.767Z,5.67
2023-11-18T01:14:35.703Z,5.71
2023-11-18T01:17:02.364Z,5.71
2023-11-18T01:19:29.480Z,5.73
2023-11-18T01:21:56.701Z,5.73
2023-11-18T01:24:23.225Z,5.75
2023-11-18T01:26:49.775Z,5.75
2023-11-18T01:29:16.345Z,5.74
2023-11-18T01:31:50.412Z,5.73
2023-11-18T01:34:22.630Z,5.72
2023-11-18T01:36:52.913Z,5.75
2023-11-18T01:39:19.629Z,5.82
2023-11-18T01:41:46.741Z,5.89
2023-11-18T01:44:16.287Z,5.95
2023-11-18T01:46:46.161Z,6.03
2023-11-18T01:49:16.807Z,6.08
2023-11-18T01:51:46.504Z,6.12
2023-11-18T01:54:16.623Z,6.13
2023-11-18T01:56:45.649Z,6.11
2023-11-18T01:59:18.998Z,6.13
2023-11-18T02:01:55.317Z,6.18
2023-11-18T02:04:22.774Z,6.15
2023-11-18T02:06:50.335Z,6.12
2023-11-18T02:09:25.077Z,6.16
2023-11-18T02:12:10.859Z,6.21
2023-11-18T02:14:40.795Z,6.22
2023-11-18T02:17:11.588Z,6.25
2023-11-18T02:19:40.537Z,6.25
2023-11-18T02:22:08.522Z,6.27
2023-11-18T02:24:38.095Z,6.29
2023-11-18T02:27:12.551Z,6.36
2023-11-18T02:29:46.207Z,6.41
2023-11-18T02:32:18.719Z,6.46
2023-11-18T02:35:06.845Z,6.44
2023-11-18T02:37:34.293Z,6.41
2023-11-18T02:40:15.741Z,6.41
2023-11-18T02:42:45.070Z,6.38
2023-11-18T02:45:17.894Z,6.33
2023-11-18T02:47:46.169Z,6.32
2023-11-18T02:50:14.632Z,6.36
2023-11-18T02:52:41.485Z,6.38
2023-11-18T02:55:09.553Z,6.41
2023-11-18T02:57:37.511Z,6.41
2023-11-18T03:00:12.491Z,6.46
2023-11-18T03:02:40.535Z,6.46
2023-11-18T03:05:08.765Z,6.51
2023-11-18T03:07:35.382Z,6.51
2023-11-18T03:10:01.919Z,6.50
2023-11-18T03:12:29.199Z,6.51
2023-11-18T03:14:56.262Z,6.55
2023-11-18T03:17:22.974Z,6.57
2023-11-18T03:19:51.483Z,6.57
2023-11-18T03:22:18.055Z,6.53
2023-11-18T03:24:44.518Z,6.50
2023-11-18T03:27:10.941Z,6.50
2023-11-18T03:29:37.360Z,6.49
2023-11-18T03:32:06.304Z,6.51
2023-11-18T03:34:33.463Z,6.55
2023-11-18T03:37:00.316Z,6.56
2023-11-18T03:39:28.423Z,6.58
2023-11-18T03:41:55.055Z,6.57
2023-11-18T03:44:21.577Z,6.59
2023-11-18T03:46:48.089Z,6.60
2023-11-18T03:49:14.681Z,6.63
2023-11-18T03:51:41.198Z,6.67
2023-11-18T03:54:09.707Z,6.70
2023-11-18T03:56:36.262Z,6.73
2023-11-18T03:59:05.338Z,6.76
2023-11-18T04:01:33.628Z,6.78
2023-11-18T04:04:00.421Z,6.79
2023-11-18T04:06:26.915Z,6.80
2023-11-18T04:08:53.528Z,6.81
2023-11-18T04:11:19.992Z,6.83
2023-11-18T04:13:46.455Z,6.83
2023-11-18T04:16:16.990Z,6.85
2023-11-18T04:18:44.693Z,6.86
2023-11-18T04:21:11.976Z,6.86
2023-11-18T04:23:43.351Z,6.89
2023-11-18T04:26:10.935Z,6.88
2023-11-18T04:28:37.874Z,6.90
2023-11-18T04:31:06.250Z,6.90
2023-11-18T04:33:33.483Z,6.89
2023-11-18T04:36:00.401Z,6.87
2023-11-18T04:38:27.708Z,6.85
2023-11-18T04:40:55.399Z,6.87
2023-11-18T04:43:31.076Z,6.89
2023-11-18T04:46:07.049Z,6.91
2023-11-18T04:48:34.287Z,6.93
2023-11-18T04:51:01.518Z,6.95
2023-11-18T04:53:27.984Z,6.95
2023-11-18T04:55:54.566Z,6.95
2023-11-18T04:58:21.937Z,6.96
2023-11-18T05:00:49.253Z,6.96
2023-11-18T05:03:17.774Z,6.93
2023-11-18T05:05:44.784Z,6.91
2023-11-18T05:08:21.692Z,6.98
2023-11-18T05:10:49.648Z,6.99
2023-11-18T05:13:17.578Z,7.00
2023-11-18T05:15:46.303Z,7.03
2023-11-18T05:18:15.835Z,7.03
2023-11-18T05:20:43.305Z,7.05
2023-11-18T05:23:12.993Z,7.08
2023-11-18T05:25:46.969Z,7.11
2023-11-18T05:28:14.547Z,7.09
2023-11-18T05:30:44.230Z,7.12
2023-11-18T05:33:16.031Z,7.14
2023-11-18T05:35:49.622Z,7.11
2023-11-18T05:38:19.496Z,7.11
2023-11-18T05:40:56.840Z,7.05
2023-11-18T05:43:26.916Z,7.00
2023-11-18T05:46:12.045Z,7.04
2023-11-18T05:48:38.775Z,7.08
2023-11-18T05:51:10.940Z,7.12
2023-11-18T05:53:42.532Z,7.15
2023-11-18T05:56:09.284Z,7.09
2023-11-18T05:58:35.810Z,7.12
2023-11-18T06:01:03.355Z,7.12
2023-11-18T06:03:29.957Z,7.16
2023-11-18T06:05:57.243Z,7.17
2023-11-18T06:08:24.071Z,7.18
2023-11-18T06:10:52.868Z,7.17
2023-11-18T06:13:19.391Z,7.17
2023-11-18T06:15:45.843Z,7.21
2023-11-18T06:18:12.337Z,7.19
2023-11-18T06:20:39.445Z,7.19
2023-11-18T06:23:06.148Z,7.22
2023-11-18T06:25:32.833Z,7.26
2023-11-18T06:27:59.354Z,7.25
2023-11-18T06:30:27.157Z,7.26
2023-11-18T06:32:53.780Z,7.29
2023-11-18T06:35:22.526Z,7.29
2023-11-18T06:37:49.042Z,7.30
2023-11-18T06:40:19.951Z,7.26
2023-11-18T06:42:48.377Z,7.26
2023-11-18T06:45:16.115Z,7.26
2023-11-18T06:47:45.719Z,7.28
2023-11-18T06:50:15.425Z,7.29
2023-11-18T06:52:47.732Z,7.27
2023-11-18T06:55:16.361Z,7.26
2023-11-18T06:57:44.278Z,7.27
2023-11-18T07:00:15.002Z,7.29
2023-11-18T07:02:41.532Z,7.31
2023-11-18T07:05:08.349Z,7.35
2023-11-18T07:07:34.883Z,7.38
2023-11-18T07:10:01.328Z,7.36
2023-11-18T07:12:28.134Z,7.38
2023-11-18T07:14:55.128Z,7.35
2023-11-18T07:17:21.584Z,7.36
2023-11-18T07:19:48.060Z,7.39
2023-11-18T07:22:15.862Z,7.42
2023-11-18T07:24:42.274Z,7.41
2023-11-18T07:27:12.344Z,7.45
2023-11-18T07:29:38.791Z,7.47
2023-11-18T07:32:06.755Z,7.47
2023-11-18T07:34:36.582Z,7.45
2023-11-18T07:37:03.247Z,7.46
2023-11-18T07:39:45.098Z,7.46
2023-11-18T07:42:12.874Z,7.47
2023-11-18T07:44:42.427Z,7.48
2023-11-18T07:47:08.935Z,7.48
2023-11-18T07:49:36.676Z,7.49
2023-11-18T07:52:04.200Z,7.49
2023-11-18T07:54:30.777Z,7.49
2023-11-18T07:56:58.308Z,7.47
2023-11-18T07:59:25.090Z,7.48
2023-11-18T08:01:51.730Z,7.50
2023-11-18T08:04:21.890Z,7.51
2023-11-18T08:06:49.040Z,7.50
2023-11-18T08:09:15.803Z,7.49
2023-11-18T08:11:42.384Z,7.47
2023-11-18T08:14:09.244Z,7.46
2023-11-18T08:16:35.795Z,7.47
2023-11-18T08:19:06.974Z,7.46
2023-11-18T08:21:34.396Z,7.44
2023-11-18T08:24:01.393Z,7.46
2023-11-18T08:26:27.842Z,7.45
2023-11-18T08:28:54.736Z,7.47
2023-11-18T08:31:22.270Z,7.47
2023-11-18T08:33:48.835Z,7.47
2023-11-18T08:36:15.336Z,7.49
2023-11-18T08:38:45.108Z,7.49
2023-11-18T08:41:12.494Z,7.53
2023-11-18T08:43:42.024Z,7.55
2023-11-18T08:46:08.679Z,7.59
2023-11-18T08:48:35.293Z,7.64
2023-11-18T08:51:02.693Z,7.66
2023-11-18T08:53:29.143Z,7.69
2023-11-18T08:55:56.139Z,7.71
2023-11-18T08:58:23.779Z,7.71
2023-11-18T09:00:56.025Z,7.71
2023-11-18T09:03:36.045Z,7.74
2023-11-18T09:06:18.401Z,7.79
2023-11-18T09:08:46.971Z,7.81
2023-11-18T09:11:21.042Z,7.82
2023-11-18T09:13:50.834Z,7.85
2023-11-18T09:16:17.407Z,7.88
2023-11-18T09:18:47.763Z,7.90
2023-11-18T09:21:20.481Z,7.91
2023-11-18T09:23:49.019Z,7.91
2023-11-18T09:26:16.252Z,7.92
2023-11-18T09:28:43.430Z,7.96
2023-11-18T09:31:13.182Z,7.94
2023-11-18T09:33:45.971Z,7.93
2023-11-18T09:36:13.590Z,7.89
2023-11-18T09:38:45.993Z,7.92
2023-11-18T09:41:14.285Z,7.97
2023-11-18T09:43:48.235Z,8.00
2023-11-18T09:46:16.858Z,8.00
2023-11-18T09:48:48.668Z,7.95
2023-11-18T09:51:22.176Z,7.99
2023-11-18T09:53:51.643Z,8.00
2023-11-18T09:56:39.743Z,8.05
2023-11-18T09:59:17.236Z,8.02
2023-11-18T10:01:47.975Z,7.98
2023-11-18T10:04:19.282Z,7.95
2023-11-18T10:06:48.163Z,7.92
2023-11-18T10:09:18.560Z,7.94
2023-11-18T10:11:48.033Z,7.99
2023-11-18T10:14:18.298Z,7.99
2023-11-18T10:16:48.972Z,7.99
2023-11-18T10:19:19.217Z,8.03
2023-11-18T10:21:49.661Z,8.03
2023-11-18T10:24:20.326Z,8.05
2023-11-18T10:26:55.429Z,8.03
2023-11-18T10:29:22.046Z,8.02
2023-11-18T10:31:48.604Z,8.07
2023-11-18T10:34:16.980Z,8.06
2023-11-18T10:37:01.191Z,8.09
2023-11-18T10:39:36.245Z,8.10
2023-11-18T10:42:04.206Z,8.10
2023-11-18T10:44:30.800Z,8.09
2023-11-18T10:46:59.873Z,8.09
2023-11-18T10:49:30.528Z,8.15
2023-11-18T10:52:03.486Z,8.15
2023-11-18T10:54:33.135Z,8.15
2023-11-18T10:57:08.335Z,8.20
2023-11-18T10:59:34.804Z,8.16
2023-11-18T11:02:02.809Z,8.12
2023-11-18T11:04:44.216Z,8.20
2023-11-18T11:07:12.103Z,8.15
2023-11-18T11:09:43.080Z,8.17
2023-11-18T11:12:17.855Z,8.17
2023-11-18T11:14:55.669Z,8.24
2023-11-18T11:17:32.001Z,8.26
2023-11-18T11:19:59.206Z,8.27
2023-11-18T11:22:36.334Z,8.26
2023-11-18T11:25:25.912Z,8.25
2023-11-18T11:28:03.221Z,8.25
2023-11-18T11:30:33.011Z,8.21
2023-11-18T11:33:43.133Z,8.29
2023-11-18T11:36:18.614Z,8.31
2023-11-18T11:38:47.709Z,8.30
2023-11-18T11:41:20.706Z,8.33
2023-11-18T11:43:49.312Z,8.31
2023-11-18T11:46:24.134Z,8.34
2023-11-18T11:48:54.308Z,8.38
2023-11-18T11:51:31.197Z,8.45
2023-11-18T11:54:20.055Z,8.50
2023-11-18T11:57:02.677Z,8.45
2023-11-18T11:59:53.996Z,8.54
2023-11-18T12:02:29.898Z,8.53
2023-11-18T12:04:59.393Z,8.54
2023-11-18T12:07:28.309Z,8.56
2023-11-18T12:09:59.270Z,8.58
2023-11-18T12:12:31.561Z,8.57
2023-11-18T12:15:13.486Z,8.65
2023-11-18T12:17:52.074Z,8.71
2023-11-18T12:20:43.740Z,8.76
2023-11-18T12:23:16.784Z,8.75
2023-11-18T12:25:44.103Z,8.76
2023-11-18T12:28:12.671Z,8.79
2023-11-18T12:30:42.484Z,8.80
2023-11-18T12:33:19.160Z,8.78
2023-11-18T12:35:51.734Z,8.83
2023-11-18T12:38:46.484Z,8.88
2023-11-18T12:41:41.001Z,8.92
2023-11-18T12:44:27.458Z,8.90
2023-11-18T12:47:16.408Z,8.91
2023-11-18T12:49:43.461Z,8.91
2023-11-18T12:52:12.261Z,8.91
2023-11-18T12:54:39.288Z,8.88
2023-11-18T12:57:08.092Z,8.89
2023-11-18T12:59:38.759Z,8.88
2023-11-18T13:02:09.272Z,8.85
2023-11-18T13:04:35.976Z,8.81
2023-11-18T13:07:04.399Z,8.84
2023-11-18T13:09:33.348Z,8.82
2023-11-18T13:12:05.885Z,8.88
2023-11-18T13:14:37.971Z,8.93
2023-11-18T13:17:09.850Z,8.94
2023-11-18T13:19:36.482Z,8.93
2023-11-18T13:22:09.977Z,8.91
2023-11-18T13:24:41.937Z,8.94
2023-11-18T13:27:10.237Z,8.99
2023-11-18T13:29:40.567Z,8.98
2023-11-18T13:32:08.284Z,8.95
2023-11-18T13:34:36.779Z,8.96
2023-11-18T13:37:04.286Z,8.98
2023-11-18T13:39:32.443Z,8.97
2023-11-18T13:42:00.036Z,9.02
2023-11-18T13:44:40.636Z,9.06
2023-11-18T13:47:07.090Z,9.04
2023-11-18T13:49:35.621Z,9.07
2023-11-18T13:52:03.098Z,9.07
2023-11-18T13:54:32.387Z,9.08
2023-11-18T13:57:06.885Z,9.11
2023-11-18T13:59:33.423Z,9.09
2023-11-18T14:02:03.359Z,9.07
2023-11-18T14:04:30.933Z,9.08
2023-11-18T14:07:06.577Z,9.14
2023-11-18T14:09:40.769Z,9.11
2023-11-18T14:12:09.649Z,9.09
2023-11-18T14:14:36.297Z,9.09
2023-11-18T14:17:02.886Z,9.10
2023-11-18T14:19:30.207Z,9.10
2023-11-18T14:21:57.052Z,9.10
2023-11-18T14:24:24.178Z,9.08
2023-11-18T14:26:51.452Z,9.10
2023-11-18T14:29:17.912Z,9.04
2023-11-18T14:31:46.055Z,9.07
2023-11-18T14:34:12.527Z,9.06
2023-11-18T14:36:39.540Z,9.10
2023-11-18T14:39:06.385Z,9.08
2023-11-18T14:41:32.904Z,9.10
2023-11-18T14:43:59.566Z,9.11
2023-11-18T14:46:26.070Z,9.12
2023-11-18T14:48:52.868Z,9.11
2023-11-18T14:51:19.394Z,9.10
2023-11-18T14:53:45.813Z,9.10
2023-11-18T14:56:12.428Z,9.10
2023-11-18T14:58:38.955Z,9.11
2023-11-18T15:01:08.041Z,9.10
2023-11-18T15:03:36.243Z,9.13
2023-11-18T15:06:03.185Z,9.14
2023-11-18T15:08:31.746Z,9.18
2023-11-18T15:11:01.985Z,9.20
2023-11-18T15:13:28.529Z,9.17
2023-11-18T15:15:56.077Z,9.17
2023-11-18T15:18:22.707Z,9.19
2023-11-18T15:20:50.087Z,9.23
2023-11-18T15:23:18.623Z,9.23
2023-11-18T15:25:45.681Z,9.23
2023-11-18T15:28:12.830Z,9.23
2023-11-18T15:30:40.600Z,9.19
2023-11-18T15:33:10.741Z,9.22
2023-11-18T15:35:42.326Z,9.22
2023-11-18T15:38:12.577Z,9.23
2023-11-18T15:40:39.063Z,9.24
2023-11-18T15:43:06.888Z,9.23
2023-11-18T15:45:36.444Z,9.25
2023-11-18T15:48:06.249Z,9.28
2023-11-18T15:50:33.346Z,9.29
2023-11-18T15:52:59.870Z,9.28
2023-11-18T15:55:26.397Z,9.30
2023-11-18T15:57:53.983Z,9.30
2023-11-18T16:00:23.017Z,9.31
2023-11-18T16:03:01.791Z,9.33
2023-11-18T16:05:34.301Z,9.33
2023-11-18T16:08:05.353Z,9.35
2023-11-18T16:10:32.487Z,9.37
2023-11-18T16:12:59.821Z,9.35
2023-11-18T16:15:28.396Z,9.37
2023-11-18T16:17:58.063Z,9.37
2023-11-18T16:20:28.276Z,9.40
2023-11-18T16:22:56.158Z,9.43
2023-11-18T16:25:25.037Z,9.48
2023-11-18T16:27:52.981Z,9.46
2023-11-18T16:30:25.625Z,9.50
2023-11-18T16:32:52.957Z,9.49
2023-11-18T16:35:21.223Z,9.54
2023-11-18T16:37:48.586Z,9.52
2023-11-18T16:40:15.940Z,9.53
2023-11-18T16:42:47.858Z,9.54
2023-11-18T16:45:15.963Z,9.55
2023-11-18T16:47:43.634Z,9.57
2023-11-18T16:50:15.249Z,9.61
2023-11-18T16:52:41.819Z,9.60
2023-11-18T16:55:12.979Z,9.64
2023-11-18T16:57:40.038Z,9.67
2023-11-18T17:00:18.512Z,9.71
2023-11-18T17:02:46.470Z,9.74
2023-11-18T17:05:13.372Z,9.75
2023-11-18T17:07:39.951Z,9.77
2023-11-18T17:10:12.390Z,9.80
2023-11-18T17:12:52.690Z,9.83
2023-11-18T17:15:19.645Z,9.85
2023-11-18T17:17:48.062Z,9.88
2023-11-18T17:20:16.136Z,9.88
2023-11-18T17:22:43.635Z,9.91
2023-11-18T17:25:16.783Z,9.92
2023-11-18T17:27:44.678Z,9.93
2023-11-18T17:30:19.035Z,9.97
2023-11-18T17:32:47.625Z,9.98
2023-11-18T17:35:15.985Z,10.02
2023-11-18T17:37:44.497Z,10.04
2023-11-18T17:40:12.215Z,10.03
2023-11-18T17:42:43.050Z,10.10
2023-11-18T17:45:10.943Z,10.11
2023-11-18T17:47:43.144Z,10.15
2023-11-18T17:50:15.282Z,10.19
2023-11-18T17:52:45.123Z,10.18
2023-11-18T17:55:18.624Z,10.25
2023-11-18T17:57:45.651Z,10.28
2023-11-18T18:00:13.936Z,10.33
2023-11-18T18:02:41.565Z,10.33
2023-11-18T18:05:09.403Z,10.34
2023-11-18T18:07:35.858Z,10.37
2023-11-18T18:10:02.670Z,10.41
2023-11-18T18:12:29.326Z,10.42
2023-11-18T18:14:56.822Z,10.43
2023-11-18T18:17:23.434Z,10.49
2023-11-18T18:19:49.944Z,10.52
2023-11-18T18:22:16.430Z,10.54
2023-11-18T18:24:43.108Z,10.58
2023-11-18T18:27:09.665Z,10.62
2023-11-18T18:29:36.263Z,10.67
2023-11-18T18:32:03.334Z,10.72
2023-11-18T18:34:31.463Z,10.79
2023-11-18T18:36:57.930Z,10.82
2023-11-18T18:39:25.449Z,10.88
2023-11-18T18:41:51.888Z,10.91
2023-11-18T18:44:18.810Z,10.98
2023-11-18T18:46:45.555Z,11.01
2023-11-18T18:49:12.480Z,11.10
2023-11-18T18:51:39.897Z,11.18
2023-11-18T18:54:06.397Z,11.19
2023-11-18T18:56:32.797Z,11.28
2023-11-18T18:58:59.495Z,11.34
2023-11-18T19:01:27.642Z,11.41
2023-11-18T19:03:54.458Z,11.46
2023-11-18T19:06:21.129Z,11.52
2023-11-18T19:08:47.645Z,11.61
2023-11-18T19:11:14.242Z,11.68
2023-11-18T19:13:42.436Z,11.74
2023-11-18T19:16:10.710Z,11.81
2023-11-18T19:18:38.308Z,11.84
2023-11-18T19:21:05.229Z,11.90
2023-11-18T19:23:31.770Z,11.91
2023-11-18T19:25:58.291Z,11.93
2023-11-18T19:28:24.797Z,11.96
2023-11-18T19:30:51.305Z,11.97
2023-11-18T19:33:17.826Z,12.00
2023-11-18T19:35:44.401Z,12.03
2023-11-18T19:38:10.888Z,12.04
2023-11-18T19:40:37.391Z,12.09
2023-11-18T19:43:03.871Z,12.06
2023-11-18T19:45:30.402Z,12.08
2023-11-18T19:47:56.951Z,12.12
2023-11-18T19:52:52.804Z,12.16
2023-11-18T19:55:19.816Z,12.16
2023-11-18T19:57:47.822Z,12.20
2023-11-18T20:00:18.154Z,12.21
2023-11-18T20:02:46.117Z,12.28
2023-11-18T20:05:13.877Z,12.31
2023-11-18T20:07:40.536Z,12.33
2023-11-18T20:10:09.299Z,12.38
2023-11-18T20:12:36.230Z,12.40
2023-11-18T20:15:03.320Z,12.43
2023-11-18T20:17:29.854Z,12.47
2023-11-18T20:19:56.298Z,12.50
2023-11-18T20:22:22.708Z,12.54
2023-11-18T20:24:49.293Z,12.53
2023-11-18T20:27:15.715Z,12.57
2023-11-18T20:29:42.182Z,12.61
2023-11-18T20:32:09.211Z,12.66
2023-11-18T20:34:35.858Z,12.71
2023-11-18T20:37:02.382Z,12.76
2023-11-18T20:39:28.939Z,12.78
2023-11-18T20:41:55.575Z,12.82
2023-11-18T20:44:22.445Z,12.87
2023-11-18T20:46:50.992Z,12.94
2023-11-18T20:49:18.631Z,12.94
2023-11-18T20:51:45.575Z,12.98
2023-11-18T20:54:12.044Z,13.03
2023-11-18T20:56:38.619Z,13.05
2023-11-18T20:59:05.236Z,13.09
2023-11-18T21:01:31.809Z,13.15
2023-11-18T21:03:58.372Z,13.15
2023-11-18T21:06:25.074Z,13.19
2023-11-18T21:08:51.633Z,13.24
2023-11-18T21:11:18.624Z,13.23
2023-11-18T21:13:45.148Z,13.26
2023-11-18T21:16:13.680Z,13.32
2023-11-18T21:18:40.144Z,13.35
2023-11-18T21:21:06.783Z,13.33
2023-11-18T21:23:33.223Z,13.37
2023-11-18T21:25:59.760Z,13.38
2023-11-18T21:28:26.257Z,13.42
2023-11-18T21:30:53.740Z,13.44
2023-11-18T21:33:22.271Z,13.47
2023-11-18T21:35:49.142Z,13.50
2023-11-18T21:38:15.808Z,13.51
2023-11-18T21:40:42.337Z,13.54
2023-11-18T21:43:09.225Z,13.55
2023-11-18T21:45:38.633Z,13.59
2023-11-18T21:48:06.038Z,13.59
2023-11-18T21:50:34.492Z,13.62
2023-11-18T21:53:02.892Z,13.65
2023-11-18T21:55:29.680Z,13.66
2023-11-18T21:57:56.147Z,13.69
2023-11-18T22:00:22.621Z,13.72
2023-11-18T22:02:49.306Z,13.74
2023-11-18T22:05:16.178Z,13.77
2023-11-18T22:07:43.109Z,13.80
2023-11-18T22:10:18.588Z,13.79
2023-11-18T22:12:45.760Z,13.85
2023-11-18T22:15:17.925Z,13.85
2023-11-18T22:17:45.035Z,13.91
2023-11-18T22:20:14.175Z,13.94
2023-11-18T22:22:42.104Z,13.96
2023-11-18T22:25:09.691Z,13.98
2023-11-18T22:27:41.045Z,13.99
2023-11-18T22:30:09.333Z,14.04
2023-11-18T22:32:38.911Z,14.06
2023-11-18T22:35:08.066Z,14.07
2023-11-18T22:37:35.851Z,14.12
2023-11-18T22:40:09.471Z,14.20
2023-11-18T22:42:38.019Z,14.17
2023-11-18T22:45:05.487Z,14.19
2023-11-18T22:47:32.062Z,14.19
2023-11-18T22:49:58.653Z,14.18
2023-11-18T22:52:26.860Z,14.24
2023-11-18T22:54:53.398Z,14.25
2023-11-18T22:57:20.474Z,14.26
2023-11-18T22:59:47.497Z,14.25
2023-11-18T23:02:17.252Z,14.30
2023-11-18T23:04:46.192Z,14.32
2023-11-18T23:07:13.241Z,14.33
2023-11-18T23:09:39.764Z,14.33
2023-11-18T23:12:07.221Z,14.37
2023-11-18T23:14:33.994Z,14.40
2023-11-18T23:17:08.143Z,14.40
2023-11-18T23:19:41.702Z,14.41
2023-11-18T23:22:14.775Z,14.42
2023-11-18T23:24:41.265Z,14.43
2023-11-18T23:27:08.104Z,14.41
2023-11-18T23:29:34.740Z,14.44
2023-11-18T23:32:01.382Z,14.42
2023-11-18T23:34:27.837Z,14.41
2023-11-18T23:36:54.426Z,14.40
2023-11-18T23:39:26.956Z,14.40
2023-11-18T23:41:53.555Z,14.43
2023-11-18T23:44:20.015Z,14.42
2023-11-18T23:46:46.518Z,14.41
2023-11-18T23:49:13.531Z,14.43
2023-11-18T23:51:40.147Z,14.44
2023-11-18T23:54:06.761Z,14.41
2023-11-18T23:56:33.239Z,14.41
2023-11-18T23:58:59.719Z,14.39
